createdAt,value
2023-04-11T00:01:18.286Z,1
2023-04-11T00:03:15.071Z,1
2023-04-11T00:05:21.355Z,1
2023-04-11T00:07:14.899Z,1
2023-04-11T00:09:14.283Z,1
2023-04-11T00:11:21.394Z,1
2023-04-11T00:13:17.843Z,1
2023-04-11T00:15:14.773Z,1
2023-04-11T00:17:14.379Z,1
2023-04-11T00:19:17.948Z,1
2023-04-11T00:23:14.837Z,1
2023-04-11T00:25:14.399Z,1
2023-04-11T00:27:19.468Z,1
2023-04-11T00:29:14.316Z,1
2023-04-11T00:31:18.292Z,1
2023-04-11T00:33:14.292Z,1
2023-04-11T00:35:14.232Z,1
2023-04-11T00:37:18.149Z,1
2023-04-11T00:39:14.272Z,1
2023-04-11T00:41:18.210Z,1
2023-04-11T00:43:14.808Z,1
2023-04-11T00:45:14.242Z,1
2023-04-11T00:47:14.210Z,1
2023-04-11T00:49:15.108Z,1
2023-04-11T00:51:14.229Z,1
2023-04-11T00:53:14.415Z,1
2023-04-11T00:59:15.194Z,1
2023-04-11T01:01:22.205Z,1
2023-04-11T01:03:15.190Z,1
2023-04-11T01:05:14.253Z,1
2023-04-11T01:07:14.855Z,1
2023-04-11T01:09:17.734Z,1
2023-04-11T01:11:14.454Z,1
2023-04-11T01:13:18.068Z,1
2023-04-11T01:15:14.964Z,1
2023-04-11T01:17:18.133Z,1
2023-04-11T01:19:18.254Z,1
2023-04-11T01:21:18.345Z,1
2023-04-11T01:23:14.232Z,1
2023-04-11T01:25:14.872Z,1
2023-04-11T01:27:14.964Z,1
2023-04-11T01:29:14.904Z,1
2023-04-11T01:31:17.870Z,1
2023-04-11T01:33:14.716Z,1
2023-04-11T01:35:14.374Z,1
2023-04-11T01:37:14.225Z,1
2023-04-11T01:39:15.000Z,1
2023-04-11T01:41:14.913Z,1
2023-04-11T01:43:14.386Z,1
2023-04-11T01:45:14.704Z,1
2023-04-11T01:47:14.356Z,1
2023-04-11T01:49:18.758Z,1
2023-04-11T01:51:15.047Z,1
2023-04-11T01:53:18.317Z,1
2023-04-11T01:55:14.462Z,1
2023-04-11T01:57:18.294Z,1
2023-04-11T01:59:17.827Z,1
2023-04-11T02:01:15.206Z,1
2023-04-11T02:03:15.176Z,1
2023-04-11T02:05:14.261Z,1
2023-04-11T02:07:14.354Z,1
2023-04-11T02:09:14.897Z,1
2023-04-11T02:11:15.067Z,1
2023-04-11T02:13:14.246Z,1
2023-04-11T02:15:14.263Z,1
2023-04-11T02:17:14.396Z,1
2023-04-11T02:19:14.843Z,1
2023-04-11T02:21:15.063Z,1
2023-04-11T02:23:21.837Z,1
2023-04-11T02:25:15.383Z,1
2023-04-11T02:27:14.360Z,1
2023-04-11T02:31:14.957Z,1
2023-04-11T02:33:15.006Z,1
2023-04-11T02:35:15.072Z,1
2023-04-11T02:37:14.522Z,1
2023-04-11T02:39:14.807Z,1
2023-04-11T02:41:21.483Z,1
2023-04-11T02:43:15.112Z,1
2023-04-11T02:45:14.301Z,1
2023-04-11T02:47:14.544Z,1
2023-04-11T02:49:14.885Z,1
2023-04-11T02:51:15.178Z,1
2023-04-11T02:53:21.434Z,1
2023-04-11T02:55:15.067Z,1
2023-04-11T02:59:21.481Z,1
2023-04-11T03:01:14.750Z,1
2023-04-11T03:03:14.968Z,1
2023-04-11T03:05:18.372Z,1
2023-04-11T03:07:14.288Z,1
2023-04-11T03:09:14.831Z,1
2023-04-11T03:11:15.028Z,1
2023-04-11T03:13:14.602Z,1
2023-04-11T03:15:14.937Z,1
2023-04-11T03:17:15.036Z,1
2023-04-11T03:19:21.559Z,1
2023-04-11T03:21:18.153Z,1
2023-04-11T03:25:18.052Z,1
2023-04-11T03:27:21.509Z,1
2023-04-11T03:29:14.251Z,1
2023-04-11T03:31:18.314Z,1
2023-04-11T03:33:18.087Z,1
2023-04-11T03:35:14.915Z,1
2023-04-11T03:37:14.853Z,1
2023-04-11T03:39:21.354Z,1
2023-04-11T03:41:14.246Z,1
2023-04-11T03:43:15.021Z,1
2023-04-11T03:45:14.822Z,1
2023-04-11T03:47:14.272Z,1
2023-04-11T03:49:21.538Z,1
2023-04-11T03:51:14.468Z,1
2023-04-11T03:53:17.576Z,1
2023-04-11T03:55:17.794Z,0
2023-04-11T03:57:14.245Z,0
2023-04-11T03:59:14.358Z,0
2023-04-11T04:01:14.754Z,0
2023-04-11T04:03:18.544Z,0.1
2023-04-11T04:05:14.792Z,0.2
2023-04-11T04:07:14.267Z,0.4
2023-04-11T04:09:18.287Z,0.4
2023-04-11T04:11:14.813Z,0.5
2023-04-11T04:13:14.527Z,0.7
2023-04-11T04:15:14.809Z,0.9
2023-04-11T04:17:21.422Z,1.3
2023-04-11T04:19:14.783Z,2.3
2023-04-11T04:21:14.664Z,3.5
2023-04-11T04:23:15.043Z,4.3
2023-04-11T04:25:15.570Z,5
2023-04-11T04:27:14.859Z,5
2023-04-11T04:29:18.149Z,5.8
2023-04-11T04:31:17.482Z,6
2023-04-11T04:33:14.260Z,6.4
2023-04-11T04:35:18.280Z,7.4
2023-04-11T04:37:14.789Z,8.2
2023-04-11T04:39:18.266Z,9
2023-04-11T04:43:14.406Z,16.4
2023-04-11T04:45:14.298Z,22.2
2023-04-11T04:47:14.715Z,25.8
2023-04-11T04:49:18.019Z,28.5
2023-04-11T04:51:14.311Z,31.5
2023-04-11T04:53:14.636Z,38.5
2023-04-11T04:55:18.004Z,44.7
2023-04-11T04:57:14.762Z,57.4
2023-04-11T04:59:15.221Z,85.6
2023-04-11T05:01:14.280Z,94.6
2023-04-11T05:03:14.924Z,94.6
2023-04-11T05:05:14.860Z,90
2023-04-11T05:07:15.109Z,90
2023-04-11T05:09:14.947Z,60.3
2023-04-11T05:11:14.959Z,54.6
2023-04-11T05:13:21.420Z,57.4
2023-04-11T05:15:14.306Z,66.7
2023-04-11T05:17:14.930Z,73.7
2023-04-11T05:19:14.871Z,81.5
2023-04-11T05:21:15.026Z,115.6
2023-04-11T05:23:15.053Z,141.2
2023-04-11T05:25:18.672Z,172.4
2023-04-11T05:27:18.259Z,210.6
2023-04-11T05:29:18.246Z,221.4
2023-04-11T05:31:15.059Z,244.7
2023-04-11T05:33:21.511Z,257.2
2023-04-11T05:35:14.831Z,257.2
2023-04-11T05:37:15.007Z,257.2
2023-04-11T05:39:18.328Z,330.3
2023-04-11T05:41:14.912Z,445.9
2023-04-11T05:43:14.484Z,601.8
2023-04-11T05:45:15.205Z,699.2
2023-04-11T05:47:14.895Z,772.8
2023-04-11T05:49:18.074Z,772.8
2023-04-11T05:51:15.015Z,812.4
2023-04-11T05:53:14.743Z,897.8
2023-04-11T05:55:15.280Z,897.8
2023-04-11T05:57:15.034Z,735.1
2023-04-11T05:59:14.488Z,699.2
2023-04-11T06:01:18.259Z,632.7
2023-04-11T06:03:14.530Z,518
2023-04-11T06:05:21.545Z,468.7
2023-04-11T06:07:14.887Z,572.5
2023-04-11T06:09:14.765Z,735.1
2023-04-11T06:11:15.053Z,897.8
2023-04-11T06:13:18.335Z,1212
2023-04-11T06:15:14.293Z,1408.1
2023-04-11T06:17:15.047Z,1212
2023-04-11T06:19:14.278Z,1043.1
2023-04-11T06:21:14.476Z,992.3
2023-04-11T06:23:14.601Z,632.7
2023-04-11T06:25:17.944Z,492.7
2023-04-11T06:27:15.100Z,492.7
2023-04-11T06:29:17.745Z,572.5
2023-04-11T06:31:15.068Z,632.7
2023-04-11T06:33:14.534Z,854.1
2023-04-11T06:35:14.325Z,854.1
2023-04-11T06:37:18.235Z,1043.1
2023-04-11T06:39:14.327Z,1339.4
2023-04-11T06:41:14.886Z,1274.1
2023-04-11T06:43:14.382Z,1480.3
2023-04-11T06:45:14.983Z,1719.9
2023-04-11T06:47:14.825Z,1480.3
2023-04-11T06:49:14.365Z,943.9
2023-04-11T06:51:21.438Z,854.1
2023-04-11T06:53:14.688Z,992.3
2023-04-11T06:55:14.921Z,943.9
2023-04-11T06:57:18.434Z,1808
2023-04-11T06:59:15.007Z,2835.6
2023-04-11T07:01:15.061Z,3641
2023-04-11T07:03:14.721Z,3827.6
2023-04-11T07:05:15.088Z,3641
2023-04-11T07:07:15.143Z,3463.4
2023-04-11T07:09:15.465Z,3294.5
2023-04-11T07:13:18.320Z,3133.8
2023-04-11T07:15:15.263Z,3463.4
2023-04-11T07:17:15.157Z,3827.6
2023-04-11T07:19:14.765Z,4023.9
2023-04-11T07:21:14.454Z,3641
2023-04-11T07:23:18.555Z,3294.5
2023-04-11T07:25:15.121Z,2981
2023-04-11T07:27:18.298Z,2697.3
2023-04-11T07:29:14.986Z,2565.7
2023-04-11T07:31:15.127Z,2565.7
2023-04-11T07:33:15.315Z,2565.7
2023-04-11T07:35:15.147Z,2321.6
2023-04-11T07:37:14.735Z,2321.6
2023-04-11T07:39:14.592Z,2440.6
2023-04-11T07:41:14.316Z,2440.6
2023-04-11T07:43:14.702Z,2565.7
2023-04-11T07:45:15.112Z,2565.7
2023-04-11T07:47:14.988Z,2565.7
2023-04-11T07:49:17.816Z,2697.3
2023-04-11T07:51:15.324Z,2835.6
2023-04-11T07:53:18.532Z,2697.3
2023-04-11T07:55:14.313Z,2981
2023-04-11T07:59:14.599Z,3463.4
2023-04-11T08:01:15.065Z,3294.5
2023-04-11T08:03:14.560Z,3294.5
2023-04-11T08:05:18.399Z,3294.5
2023-04-11T08:07:14.750Z,2835.6
2023-04-11T08:09:15.083Z,2565.7
2023-04-11T08:11:15.246Z,2565.7
2023-04-11T08:13:14.535Z,2440.6
2023-04-11T08:15:14.934Z,2321.6
2023-04-11T08:17:25.419Z,2565.7
2023-04-11T08:21:14.848Z,3641
2023-04-11T08:23:18.387Z,4230.2
2023-04-11T08:25:15.582Z,4023.9
2023-04-11T08:27:14.706Z,3641
2023-04-11T08:29:15.292Z,3463.4
2023-04-11T08:31:18.391Z,3641
2023-04-11T08:33:14.693Z,3463.4
2023-04-11T08:35:18.408Z,4023.9
2023-04-11T08:37:18.334Z,4914.8
2023-04-11T08:39:15.075Z,5166.8
2023-04-11T08:41:18.348Z,5166.8
2023-04-11T08:43:21.382Z,5431.7
2023-04-11T08:45:15.007Z,5166.8
2023-04-11T08:47:15.000Z,4914.8
2023-04-11T08:49:18.461Z,4675.1
2023-04-11T08:51:21.452Z,4675.1
2023-04-11T08:53:15.109Z,4447.1
2023-04-11T08:55:18.417Z,3641
2023-04-11T08:57:15.227Z,4023.9
2023-04-11T08:59:14.620Z,4675.1
2023-04-11T09:01:14.623Z,5166.8
2023-04-11T09:03:15.054Z,5431.7
2023-04-11T09:05:14.984Z,5166.8
2023-04-11T09:07:18.316Z,5710.1
2023-04-11T09:09:14.370Z,6002.9
2023-04-11T09:13:14.551Z,5431.7
2023-04-11T09:15:18.511Z,4230.2
2023-04-11T09:17:18.356Z,3294.5
2023-04-11T09:19:21.868Z,4230.2
2023-04-11T09:21:15.040Z,4447.1
2023-04-11T09:23:18.238Z,4447.1
2023-04-11T09:25:21.937Z,4914.8
2023-04-11T09:27:14.652Z,5431.7
2023-04-11T09:29:18.036Z,5710.1
2023-04-11T09:31:21.775Z,5710.1
2023-04-11T09:33:14.832Z,5710.1
2023-04-11T09:35:15.219Z,5431.7
2023-04-11T09:37:21.646Z,5431.7
2023-04-11T09:39:15.280Z,5710.1
2023-04-11T09:41:15.016Z,6310.7
2023-04-11T09:43:14.375Z,6634.2
2023-04-11T09:45:14.818Z,6634.2
2023-04-11T09:47:15.073Z,6310.7
2023-04-11T09:49:18.344Z,5710.1
2023-04-11T09:51:24.248Z,4914.8
2023-04-11T09:53:14.535Z,3294.5
2023-04-11T09:55:18.121Z,2565.7
2023-04-11T09:57:15.401Z,2565.7
2023-04-11T09:59:14.863Z,2697.3
2023-04-11T10:01:21.429Z,3463.4
2023-04-11T10:03:14.915Z,4447.1
2023-04-11T10:05:14.548Z,4230.2
2023-04-11T10:07:18.372Z,4675.1
2023-04-11T10:09:15.116Z,4914.8
2023-04-11T10:11:15.008Z,4675.1
2023-04-11T10:13:18.393Z,4447.1
2023-04-11T10:15:14.487Z,4914.8
2023-04-11T10:17:16.386Z,4914.8
2023-04-11T10:19:14.813Z,5431.7
2023-04-11T10:21:18.283Z,5710.1
2023-04-11T10:23:15.109Z,6310.7
2023-04-11T10:25:14.791Z,6310.7
2023-04-11T10:27:14.879Z,6974.4
2023-04-11T10:29:15.354Z,6634.2
2023-04-11T10:31:15.198Z,6634.2
2023-04-11T10:33:15.272Z,7332
2023-04-11T10:35:14.816Z,8518.5
2023-04-11T10:37:15.322Z,10938
2023-04-11T10:39:15.099Z,12088.4
2023-04-11T10:41:14.821Z,11498.8
2023-04-11T10:43:15.403Z,14044.7
2023-04-11T10:45:14.738Z,17154.2
2023-04-11T10:47:15.165Z,18033.7
2023-04-11T10:49:18.356Z,16317.6
2023-04-11T10:51:14.373Z,15521.8
2023-04-11T10:53:14.915Z,15521.8
2023-04-11T10:55:14.581Z,14044.7
2023-04-11T10:57:14.804Z,13359.7
2023-04-11T10:59:15.394Z,12708.2
2023-04-11T11:01:20.986Z,13359.7
2023-04-11T11:03:14.550Z,13359.7
2023-04-11T11:05:14.591Z,12708.2
2023-04-11T11:07:14.407Z,12708.2
2023-04-11T11:09:15.170Z,13359.7
2023-04-11T11:11:14.350Z,14044.7
2023-04-11T11:13:14.317Z,14764.8
2023-04-11T11:15:15.171Z,12088.4
2023-04-11T11:17:15.276Z,15521.8
2023-04-11T11:19:15.133Z,14764.8
2023-04-11T11:21:20.553Z,15521.8
2023-04-11T11:23:14.433Z,16317.6
2023-04-11T11:25:14.971Z,16317.6
2023-04-11T11:27:14.360Z,16317.6
2023-04-11T11:29:14.963Z,16317.6
2023-04-11T11:31:14.861Z,14044.7
2023-04-11T11:33:14.365Z,16317.6
2023-04-11T11:35:14.733Z,15521.8
2023-04-11T11:37:15.034Z,11498.8
2023-04-11T11:39:14.485Z,14764.8
2023-04-11T11:41:14.374Z,14764.8
2023-04-11T11:43:14.395Z,11498.8
2023-04-11T11:45:14.824Z,10938
2023-04-11T11:47:15.282Z,9414.4
2023-04-11T11:49:15.416Z,7707.9
2023-04-11T11:51:14.452Z,8103.1
2023-04-11T11:53:15.214Z,12088.4
2023-04-11T11:55:15.131Z,9897.1
2023-04-11T11:57:14.845Z,12708.2
2023-04-11T11:59:15.085Z,14044.7
2023-04-11T12:01:15.368Z,9897.1
2023-04-11T12:03:14.531Z,8955.3
2023-04-11T12:05:14.638Z,9897.1
2023-04-11T12:07:15.145Z,9897.1
2023-04-11T12:09:14.370Z,13359.7
2023-04-11T12:11:15.070Z,11498.8
2023-04-11T12:13:15.017Z,14044.7
2023-04-11T12:15:14.443Z,10938
2023-04-11T12:17:14.361Z,8518.5
2023-04-11T12:19:15.148Z,7707.9
2023-04-11T12:21:14.834Z,9414.4
2023-04-11T12:23:14.969Z,8518.5
2023-04-11T12:25:15.043Z,10938
2023-04-11T12:27:14.797Z,13359.7
2023-04-11T12:29:14.498Z,10404.6
2023-04-11T12:31:14.623Z,10404.6
2023-04-11T12:33:15.173Z,10404.6
2023-04-11T12:35:14.511Z,10404.6
2023-04-11T12:37:15.182Z,13359.7
2023-04-11T12:39:14.476Z,10404.6
2023-04-11T12:41:31.419Z,10404.6
2023-04-11T12:43:15.158Z,10404.6
2023-04-11T12:45:15.256Z,15521.8
2023-04-11T12:47:14.402Z,14764.8
2023-04-11T12:49:14.316Z,13359.7
2023-04-11T12:51:15.011Z,11498.8
2023-04-11T12:53:15.024Z,7332
2023-04-11T12:55:15.037Z,6634.2
2023-04-11T12:57:15.354Z,8518.5
2023-04-11T12:59:14.687Z,11498.8
2023-04-11T13:01:14.731Z,11498.8
2023-04-11T13:03:14.621Z,14764.8
2023-04-11T13:05:15.783Z,14044.7
2023-04-11T13:07:14.570Z,13359.7
2023-04-11T13:09:14.604Z,12088.4
2023-04-11T13:11:14.411Z,14044.7
2023-04-11T13:13:18.242Z,11498.8
2023-04-11T13:15:14.565Z,10404.6
2023-04-11T13:17:14.610Z,9897.1
2023-04-11T13:19:14.422Z,9897.1
2023-04-11T13:21:14.446Z,9414.4
2023-04-11T13:23:16.511Z,9897.1
2023-04-11T13:25:14.864Z,8103.1
2023-04-11T13:27:15.092Z,8103.1
2023-04-11T13:29:15.206Z,7707.9
2023-04-11T13:31:14.556Z,8955.3
2023-04-11T13:33:15.046Z,9897.1
2023-04-11T13:35:14.459Z,11498.8
2023-04-11T13:37:15.120Z,11498.8
2023-04-11T13:39:15.266Z,11498.8
2023-04-11T13:41:15.120Z,9897.1
2023-04-11T13:43:14.579Z,10404.6
2023-04-11T13:45:14.689Z,11498.8
2023-04-11T13:47:15.274Z,10404.6
2023-04-11T13:49:15.134Z,12088.4
2023-04-11T13:51:14.505Z,13359.7
2023-04-11T13:53:14.554Z,12088.4
2023-04-11T13:55:14.674Z,11498.8
2023-04-11T13:57:15.343Z,11498.8
2023-04-11T13:59:14.911Z,12088.4
2023-04-11T14:01:15.021Z,10938
2023-04-11T14:03:14.757Z,11498.8
2023-04-11T14:05:15.078Z,9897.1
2023-04-11T14:07:15.281Z,9897.1
2023-04-11T14:09:15.006Z,10404.6
2023-04-11T14:11:15.150Z,8955.3
2023-04-11T14:13:14.361Z,10404.6
2023-04-11T14:15:15.302Z,10404.6
2023-04-11T14:17:14.504Z,11498.8
2023-04-11T14:19:14.345Z,10938
2023-04-11T14:21:14.993Z,9897.1
2023-04-11T14:23:14.474Z,10938
2023-04-11T14:25:15.061Z,9897.1
2023-04-11T14:27:14.671Z,10404.6
2023-04-11T14:29:14.446Z,10938
2023-04-11T14:31:15.187Z,9897.1
2023-04-11T14:33:14.601Z,8955.3
2023-04-11T14:35:14.763Z,8518.5
2023-04-11T14:37:14.514Z,8103.1
2023-04-11T14:39:14.418Z,8103.1
2023-04-11T14:41:14.458Z,4914.8
2023-04-11T14:43:14.520Z,8103.1
2023-04-11T14:45:15.028Z,8103.1
2023-04-11T14:47:14.889Z,8103.1
2023-04-11T14:49:15.030Z,7707.9
2023-04-11T14:51:15.303Z,6974.4
2023-04-11T14:53:14.810Z,8103.1
2023-04-11T14:55:14.516Z,6974.4
2023-04-11T14:57:15.139Z,5710.1
2023-04-11T14:59:14.440Z,8518.5
2023-04-11T15:01:14.419Z,7707.9
2023-04-11T15:03:14.596Z,5166.8
2023-04-11T15:05:14.377Z,4675.1
2023-04-11T15:07:15.012Z,5166.8
2023-04-11T15:09:15.268Z,5431.7
2023-04-11T15:11:14.713Z,8103.1
2023-04-11T15:13:14.381Z,6310.7
2023-04-11T15:15:14.588Z,6002.9
2023-04-11T15:17:14.430Z,5710.1
2023-04-11T15:19:15.264Z,4914.8
2023-04-11T15:21:14.497Z,4230.2
2023-04-11T15:23:15.092Z,4230.2
2023-04-11T15:25:14.969Z,4447.1
2023-04-11T15:27:14.477Z,7332
2023-04-11T15:29:14.454Z,4675.1
2023-04-11T15:31:15.211Z,4230.2
2023-04-11T15:33:14.558Z,6634.2
2023-04-11T15:35:14.620Z,6974.4
2023-04-11T15:37:15.126Z,6002.9
2023-04-11T15:39:15.190Z,6310.7
2023-04-11T15:41:15.161Z,6002.9
2023-04-11T15:43:14.658Z,6002.9
2023-04-11T15:45:14.497Z,5710.1
2023-04-11T15:47:15.325Z,5431.7
2023-04-11T15:49:15.188Z,5710.1
2023-04-11T15:51:14.970Z,3294.5
2023-04-11T15:53:15.041Z,5431.7
2023-04-11T15:55:15.260Z,5431.7
2023-04-11T15:57:15.223Z,5710.1
2023-04-11T15:59:15.000Z,5431.7
2023-04-11T16:01:15.165Z,5431.7
2023-04-11T16:03:14.882Z,4914.8
2023-04-11T16:05:15.459Z,5166.8
2023-04-11T16:07:14.513Z,4675.1
2023-04-11T16:09:14.603Z,5166.8
2023-04-11T16:11:14.751Z,4675.1
2023-04-11T16:13:14.716Z,4230.2
2023-04-11T16:15:14.565Z,4023.9
2023-04-11T16:17:15.060Z,4230.2
2023-04-11T16:19:15.424Z,4914.8
2023-04-11T16:21:15.208Z,4914.8
2023-04-11T16:23:14.589Z,4675.1
2023-04-11T16:25:15.226Z,4675.1
2023-04-11T16:27:14.906Z,4023.9
2023-04-11T16:29:14.536Z,2981
2023-04-11T16:31:14.781Z,3463.4
2023-04-11T16:33:15.474Z,2981
2023-04-11T16:35:14.813Z,3294.5
2023-04-11T16:37:15.062Z,3294.5
2023-04-11T16:39:15.085Z,3294.5
2023-04-11T16:41:15.383Z,3294.5
2023-04-11T16:43:14.944Z,3294.5
2023-04-11T16:45:14.689Z,3133.8
2023-04-11T16:47:14.505Z,2697.3
2023-04-11T16:49:14.569Z,2981
2023-04-11T16:51:15.163Z,2440.6
2023-04-11T16:53:15.553Z,2208.3
2023-04-11T16:55:14.824Z,1900.7
2023-04-11T16:57:14.476Z,1998.2
2023-04-11T16:59:14.485Z,1900.7
2023-04-11T17:01:15.493Z,1900.7
2023-04-11T17:03:15.236Z,1719.9
2023-04-11T17:05:14.526Z,1808
2023-04-11T17:07:15.061Z,1900.7
2023-04-11T17:09:14.777Z,1998.2
2023-04-11T17:11:14.533Z,2100.6
2023-04-11T17:13:14.626Z,2100.6
2023-04-11T17:15:14.514Z,2100.6
2023-04-11T17:17:15.403Z,2100.6
2023-04-11T17:19:14.548Z,2208.3
2023-04-11T17:21:14.540Z,2100.6
2023-04-11T17:23:15.360Z,1900.7
2023-04-11T17:25:15.085Z,1808
2023-04-11T17:27:14.970Z,1556.2
2023-04-11T17:29:15.145Z,1408.1
2023-04-11T17:31:14.554Z,1212
2023-04-11T17:33:15.459Z,1043.1
2023-04-11T17:35:15.244Z,943.9
2023-04-11T17:37:14.560Z,812.4
2023-04-11T17:39:14.622Z,665.1
2023-04-11T17:41:15.590Z,601.8
2023-04-11T17:43:15.022Z,518
2023-04-11T17:45:18.081Z,468.7
2023-04-11T17:47:15.495Z,403.4
2023-04-11T17:49:15.001Z,347.2
2023-04-11T17:51:15.067Z,298.9
2023-04-11T17:53:15.125Z,244.7
2023-04-11T17:55:15.048Z,200.3
2023-04-11T17:57:16.374Z,164
2023-04-11T17:59:14.992Z,141.2
2023-04-11T18:01:15.091Z,109.9
2023-04-11T18:03:15.537Z,85.6
2023-04-11T18:05:22.833Z,70.1
2023-04-11T18:07:15.121Z,54.6
2023-04-11T18:09:14.815Z,40.4
2023-04-11T18:11:15.101Z,30
2023-04-11T18:13:15.482Z,22.2
2023-04-11T18:15:14.887Z,15.6
2023-04-11T18:17:15.014Z,10.5
2023-04-11T18:19:15.254Z,7.4
2023-04-11T18:21:14.613Z,5.2
2023-04-11T18:23:15.604Z,3.5
2023-04-11T18:25:14.608Z,2.5
2023-04-11T18:27:15.004Z,1.6
2023-04-11T18:29:14.711Z,1.2
2023-04-11T18:31:15.011Z,0.8
2023-04-11T18:33:14.649Z,0.5
2023-04-11T18:35:15.083Z,0.4
2023-04-11T18:37:14.510Z,0.3
2023-04-11T18:39:15.148Z,0.2
2023-04-11T18:41:15.225Z,0.1
2023-04-11T18:43:15.481Z,0.1
2023-04-11T18:45:15.361Z,0
2023-04-11T18:47:17.217Z,0
2023-04-11T18:49:17.483Z,0
2023-04-11T18:51:15.056Z,0
2023-04-11T18:53:15.348Z,0
2023-04-11T18:55:15.523Z,1
2023-04-11T18:57:15.061Z,1
2023-04-11T18:59:17.514Z,1
2023-04-11T19:01:16.758Z,1
2023-04-11T19:03:15.638Z,1
2023-04-11T19:05:15.619Z,1
2023-04-11T19:07:15.448Z,1
2023-04-11T19:09:15.405Z,1
2023-04-11T19:11:15.142Z,1
2023-04-11T19:13:15.188Z,1
2023-04-11T19:15:15.187Z,1
2023-04-11T19:17:14.974Z,1
2023-04-11T19:19:15.367Z,1
2023-04-11T19:21:14.853Z,1
2023-04-11T19:23:14.964Z,1
2023-04-11T19:25:15.576Z,1
2023-04-11T19:27:14.530Z,1
2023-04-11T19:29:15.019Z,1
2023-04-11T19:31:15.054Z,1
2023-04-11T19:33:14.951Z,1
2023-04-11T19:35:15.417Z,1
2023-04-11T19:37:15.221Z,1
2023-04-11T19:39:15.286Z,1
2023-04-11T19:41:15.515Z,1
2023-04-11T19:43:14.589Z,1
2023-04-11T19:45:15.176Z,1
2023-04-11T19:47:15.014Z,1
2023-04-11T19:49:15.281Z,1
2023-04-11T19:51:15.275Z,1
2023-04-11T19:53:15.033Z,1
2023-04-11T19:55:16.197Z,1
2023-04-11T19:57:14.912Z,1
2023-04-11T19:59:14.555Z,1
2023-04-11T20:01:15.279Z,1
2023-04-11T20:03:15.507Z,1
2023-04-11T20:05:15.448Z,1
2023-04-11T20:07:14.937Z,1
2023-04-11T20:09:14.533Z,1
2023-04-11T20:11:15.174Z,1
2023-04-11T20:13:15.008Z,1
2023-04-11T20:15:14.690Z,1
2023-04-11T20:17:15.278Z,1
2023-04-11T20:19:14.724Z,1
2023-04-11T20:21:14.781Z,1
2023-04-11T20:23:15.089Z,1
2023-04-11T20:25:14.631Z,1
2023-04-11T20:27:15.337Z,1
2023-04-11T20:29:15.465Z,1
2023-04-11T20:31:15.024Z,1
2023-04-11T20:33:14.535Z,0.1
2023-04-11T20:35:15.034Z,0
2023-04-11T20:37:15.786Z,0
2023-04-11T20:39:15.119Z,1
2023-04-11T20:41:15.495Z,1
2023-04-11T20:43:14.927Z,1
2023-04-11T20:45:14.553Z,1
2023-04-11T20:47:15.414Z,1
2023-04-11T20:49:14.977Z,1
2023-04-11T20:51:15.160Z,1
2023-04-11T20:53:14.973Z,1
2023-04-11T20:55:15.516Z,1
2023-04-11T20:57:15.107Z,1
2023-04-11T20:59:15.086Z,1
2023-04-11T21:01:15.062Z,1
2023-04-11T21:03:15.091Z,1
2023-04-11T21:05:15.427Z,1
2023-04-11T21:07:15.343Z,1
2023-04-11T21:09:15.015Z,1
2023-04-11T21:11:15.153Z,1
2023-04-11T21:13:15.390Z,1
2023-04-11T21:15:15.023Z,1
2023-04-11T21:17:15.442Z,1
2023-04-11T21:19:15.009Z,1
2023-04-11T21:21:15.243Z,1
2023-04-11T21:23:15.023Z,1
2023-04-11T21:25:14.845Z,1
2023-04-11T21:27:15.389Z,1
2023-04-11T21:29:15.064Z,1
2023-04-11T21:31:15.470Z,1
2023-04-11T21:33:15.050Z,1
2023-04-11T21:35:15.763Z,1
2023-04-11T21:37:14.810Z,1
2023-04-11T21:39:15.076Z,1
2023-04-11T21:41:14.574Z,1
2023-04-11T21:43:15.388Z,1
2023-04-11T21:45:15.331Z,1
2023-04-11T21:47:14.765Z,1
2023-04-11T21:49:14.598Z,1
2023-04-11T21:51:14.507Z,1
2023-04-11T21:53:14.768Z,1
2023-04-11T21:55:15.133Z,1
2023-04-11T21:57:15.095Z,1
2023-04-11T21:59:14.611Z,1
2023-04-11T22:01:14.478Z,1
2023-04-11T22:03:15.283Z,1
2023-04-11T22:05:15.575Z,1
2023-04-11T22:07:15.329Z,1
2023-04-11T22:09:15.260Z,1
2023-04-11T22:11:15.058Z,1
2023-04-11T22:13:15.352Z,1
2023-04-11T22:15:14.577Z,1
2023-04-11T22:17:15.152Z,1
2023-04-11T22:19:15.058Z,1
2023-04-11T22:21:14.772Z,1
2023-04-11T22:23:15.142Z,1
2023-04-11T22:25:15.072Z,1
2023-04-11T22:27:14.996Z,1
2023-04-11T22:29:15.363Z,1
2023-04-11T22:31:14.978Z,1
2023-04-11T22:33:15.229Z,1
2023-04-11T22:35:14.739Z,1
2023-04-11T22:37:14.629Z,1
2023-04-11T22:39:14.493Z,1
2023-04-11T22:41:14.972Z,1
2023-04-11T22:43:15.175Z,1
2023-04-11T22:45:15.323Z,1
2023-04-11T22:47:14.663Z,1
2023-04-11T22:49:14.488Z,1
2023-04-11T22:51:14.948Z,1
2023-04-11T22:53:14.783Z,1
2023-04-11T22:55:15.506Z,1
2023-04-11T22:57:15.400Z,1
2023-04-11T22:59:14.505Z,1
2023-04-11T23:01:15.355Z,1
2023-04-11T23:03:15.041Z,1
2023-04-11T23:05:14.506Z,1
2023-04-11T23:07:15.110Z,1
2023-04-11T23:09:15.281Z,1
2023-04-11T23:11:14.525Z,1
2023-04-11T23:13:15.131Z,1
2023-04-11T23:15:15.254Z,1
2023-04-11T23:17:15.233Z,1
2023-04-11T23:19:14.505Z,1
2023-04-11T23:21:14.618Z,1
2023-04-11T23:23:14.715Z,1
2023-04-11T23:25:15.260Z,1
2023-04-11T23:27:15.399Z,1
2023-04-11T23:29:14.698Z,1
2023-04-11T23:31:14.729Z,1
2023-04-11T23:33:14.796Z,1
2023-04-11T23:35:14.541Z,1
2023-04-11T23:37:14.534Z,1
2023-04-11T23:39:14.513Z,1
2023-04-11T23:41:14.540Z,1
2023-04-11T23:43:14.658Z,1
2023-04-11T23:45:15.364Z,1
2023-04-11T23:47:14.539Z,1
2023-04-11T23:49:14.597Z,1
2023-04-11T23:51:15.329Z,1
2023-04-11T23:53:14.652Z,1
2023-04-11T23:55:15.772Z,1
2023-04-11T23:57:14.588Z,1
2023-04-11T23:59:14.533Z,1
